createdAt,value
2023-02-24T00:01:03.616Z,10.40
2023-02-24T00:04:09.416Z,10.50
2023-02-24T00:07:13.580Z,10.50
2023-02-24T00:10:20.938Z,10.50
2023-02-24T00:13:23.803Z,10.50
2023-02-24T00:16:28.148Z,10.50
2023-02-24T00:19:32.637Z,10.50
2023-02-24T00:22:35.883Z,10.40
2023-02-24T00:25:38.714Z,10.40
2023-02-24T00:28:42.671Z,10.40
2023-02-24T00:31:47.392Z,10.30
2023-02-24T00:34:50.376Z,10.20
2023-02-24T00:37:54.377Z,10.10
2023-02-24T00:40:58.360Z,10.10
2023-02-24T00:44:07.265Z,10.10
2023-02-24T00:47:12.959Z,10.10
2023-02-24T00:50:15.900Z,10.10
2023-02-24T00:53:18.764Z,10.20
2023-02-24T00:56:21.612Z,10.20
2023-02-24T00:59:25.165Z,10.10
2023-02-24T01:02:29.472Z,10.10
2023-02-24T01:05:32.585Z,10.10
2023-02-24T01:08:36.506Z,10.00
2023-02-24T01:11:58.092Z,10.00
2023-02-24T01:15:02.988Z,10.00
2023-02-24T01:18:07.273Z,9.90
2023-02-24T01:21:10.102Z,9.90
2023-02-24T01:24:13.169Z,9.90
2023-02-24T01:27:18.810Z,9.90
2023-02-24T01:30:22.710Z,9.90
2023-02-24T01:33:27.116Z,9.90
2023-02-24T01:36:31.160Z,9.90
2023-02-24T01:39:34.040Z,9.90
2023-02-24T01:42:38.781Z,9.90
2023-02-24T01:45:42.687Z,9.90
2023-02-24T01:48:46.931Z,9.80
2023-02-24T01:51:57.298Z,9.70
2023-02-24T01:55:07.534Z,9.70
2023-02-24T01:58:17.372Z,9.70
2023-02-24T02:01:20.625Z,9.70
2023-02-24T02:04:38.962Z,9.70
2023-02-24T02:07:43.464Z,9.60
2023-02-24T02:10:47.340Z,9.60
2023-02-24T02:13:52.405Z,9.60
2023-02-24T02:17:10.736Z,9.60
2023-02-24T02:20:34.328Z,9.50
2023-02-24T02:23:55.166Z,9.50
2023-02-24T02:27:38.460Z,9.50
2023-02-24T02:31:02.044Z,9.40
2023-02-24T02:34:17.138Z,9.40
2023-02-24T02:37:25.376Z,9.30
2023-02-24T02:40:37.545Z,9.30
2023-02-24T02:43:46.561Z,9.20
2023-02-24T02:46:57.074Z,9.20
2023-02-24T02:50:08.132Z,9.10
2023-02-24T02:53:15.674Z,9.00
2023-02-24T02:56:22.936Z,8.90
2023-02-24T02:59:29.548Z,8.90
2023-02-24T03:02:38.224Z,9.00
2023-02-24T03:05:48.411Z,9.10
2023-02-24T03:08:56.551Z,9.00
2023-02-24T03:12:07.923Z,9.00
2023-02-24T03:15:13.383Z,9.00
2023-02-24T03:18:21.372Z,9.00
2023-02-24T03:21:32.957Z,9.00
2023-02-24T03:24:39.037Z,8.90
2023-02-24T03:27:49.244Z,9.00
2023-02-24T03:30:59.972Z,9.00
2023-02-24T03:34:08.601Z,8.90
2023-02-24T03:37:13.268Z,8.90
2023-02-24T03:40:17.715Z,8.90
2023-02-24T03:43:25.958Z,8.80
2023-02-24T03:46:29.891Z,8.70
2023-02-24T03:49:32.781Z,8.60
2023-02-24T03:52:47.109Z,8.70
2023-02-24T03:56:00.523Z,8.70
2023-02-24T03:59:15.109Z,8.60
2023-02-24T04:02:23.493Z,8.60
2023-02-24T04:05:29.977Z,8.60
2023-02-24T04:08:40.308Z,8.60
2023-02-24T04:11:48.299Z,8.60
2023-02-24T04:14:57.245Z,8.60
2023-02-24T04:18:05.201Z,8.60
2023-02-24T04:21:08.692Z,8.60
2023-02-24T04:24:15.847Z,8.50
2023-02-24T04:27:19.523Z,8.50
2023-02-24T04:30:26.726Z,8.40
2023-02-24T04:33:29.711Z,8.40
2023-02-24T04:36:34.138Z,8.40
2023-02-24T04:39:38.858Z,8.40
2023-02-24T04:42:46.588Z,8.40
2023-02-24T04:45:51.497Z,8.50
2023-02-24T04:48:54.331Z,8.50
2023-02-24T04:51:57.213Z,8.50
2023-02-24T04:55:01.389Z,8.50
2023-02-24T04:58:04.689Z,8.50
2023-02-24T05:01:10.886Z,8.50
2023-02-24T05:04:15.173Z,8.50
2023-02-24T05:07:18.137Z,8.50
2023-02-24T05:10:27.764Z,8.50
2023-02-24T05:13:32.338Z,8.50
2023-02-24T05:16:35.391Z,8.50
2023-02-24T05:19:55.887Z,8.50
2023-02-24T05:22:58.754Z,8.60
2023-02-24T05:26:08.388Z,8.50
2023-02-24T05:29:12.419Z,8.50
2023-02-24T05:32:16.716Z,8.50
2023-02-24T05:35:20.110Z,8.40
2023-02-24T05:38:23.219Z,8.40
2023-02-24T05:41:32.525Z,8.40
2023-02-24T05:44:36.211Z,8.40
2023-02-24T05:47:40.113Z,8.30
2023-02-24T05:50:46.235Z,8.30
2023-02-24T05:53:49.103Z,8.40
2023-02-24T05:56:53.385Z,8.40
2023-02-24T05:59:56.281Z,8.40
2023-02-24T06:03:08.292Z,8.40
2023-02-24T06:06:11.239Z,8.50
2023-02-24T06:09:14.870Z,8.50
2023-02-24T06:12:19.620Z,8.40
2023-02-24T06:15:22.450Z,8.40
2023-02-24T06:18:25.343Z,8.30
2023-02-24T06:21:29.950Z,8.20
2023-02-24T06:24:34.086Z,8.20
2023-02-24T06:27:39.092Z,8.20
2023-02-24T06:30:41.982Z,8.20
2023-02-24T06:33:45.065Z,8.20
2023-02-24T06:36:49.063Z,8.10
2023-02-24T06:39:52.171Z,8.10
2023-02-24T06:42:56.395Z,8.10
2023-02-24T06:45:59.501Z,8.00
2023-02-24T06:49:02.947Z,8.10
2023-02-24T06:52:06.326Z,8.00
2023-02-24T06:55:25.157Z,8.10
2023-02-24T06:58:29.529Z,8.00
2023-02-24T07:01:34.540Z,8.00
2023-02-24T07:04:43.798Z,8.00
2023-02-24T07:07:46.855Z,8.10
2023-02-24T07:10:56.850Z,8.20
2023-02-24T07:14:02.421Z,8.20
2023-02-24T07:17:05.781Z,8.10
2023-02-24T07:20:25.055Z,8.00
2023-02-24T07:23:29.357Z,8.10
2023-02-24T07:26:33.705Z,8.10
2023-02-24T07:29:38.756Z,8.20
2023-02-24T07:32:42.533Z,8.20
2023-02-24T07:35:50.865Z,8.20
2023-02-24T07:38:55.430Z,8.20
2023-02-24T07:41:59.930Z,8.10
2023-02-24T07:45:04.893Z,8.20
2023-02-24T07:48:07.896Z,8.20
2023-02-24T07:51:12.293Z,8.30
2023-02-24T07:54:16.408Z,8.40
2023-02-24T07:57:19.278Z,8.60
2023-02-24T08:00:28.272Z,8.60
2023-02-24T08:03:31.524Z,8.80
2023-02-24T08:06:38.800Z,9.00
2023-02-24T08:10:08.181Z,9.00
2023-02-24T08:13:12.181Z,9.00
2023-02-24T08:16:16.668Z,9.10
2023-02-24T08:19:21.851Z,9.30
2023-02-24T08:22:25.096Z,9.50
2023-02-24T08:25:36.097Z,9.60
2023-02-24T08:28:39.711Z,9.70
2023-02-24T08:31:44.671Z,9.90
2023-02-24T08:34:49.560Z,9.80
2023-02-24T08:37:54.546Z,9.70
2023-02-24T08:41:04.852Z,9.60
2023-02-24T08:44:10.218Z,9.60
2023-02-24T08:47:20.936Z,9.60
2023-02-24T08:50:27.282Z,9.50
2023-02-24T08:53:31.516Z,9.60
2023-02-24T08:56:35.362Z,9.60
2023-02-24T08:59:39.270Z,9.60
2023-02-24T09:02:43.454Z,9.50
2023-02-24T09:05:46.346Z,9.60
2023-02-24T09:08:49.218Z,9.60
2023-02-24T09:11:55.984Z,9.60
2023-02-24T09:15:04.453Z,9.60
2023-02-24T09:18:09.647Z,9.70
2023-02-24T09:21:37.335Z,9.80
2023-02-24T09:24:40.214Z,9.90
2023-02-24T09:27:43.319Z,10.00
2023-02-24T09:30:57.014Z,10.00
2023-02-24T09:34:04.035Z,10.10
2023-02-24T09:37:24.766Z,10.10
2023-02-24T09:40:40.431Z,10.10
2023-02-24T09:43:44.273Z,10.30
2023-02-24T09:46:54.900Z,10.40
2023-02-24T09:50:04.364Z,10.60
2023-02-24T09:53:17.384Z,10.80
2023-02-24T09:56:32.704Z,10.90
2023-02-24T09:59:51.204Z,11.00
2023-02-24T10:03:03.862Z,11.10
2023-02-24T10:06:20.672Z,11.20
2023-02-24T10:09:33.516Z,11.20
2023-02-24T10:12:40.358Z,11.30
2023-02-24T10:15:59.328Z,11.30
2023-02-24T10:19:15.088Z,11.50
2023-02-24T10:22:28.644Z,11.60
2023-02-24T10:25:44.698Z,11.90
2023-02-24T10:28:57.253Z,11.90
2023-02-24T10:32:10.862Z,12.10
2023-02-24T10:35:17.317Z,12.10
2023-02-24T10:38:22.532Z,12.30
2023-02-24T10:41:28.786Z,12.10
2023-02-24T10:44:36.055Z,12.10
2023-02-24T10:47:44.419Z,12.20
2023-02-24T10:50:55.918Z,12.20
2023-02-24T10:54:34.168Z,12.30
2023-02-24T10:57:58.620Z,12.30
2023-02-24T11:01:18.600Z,12.30
2023-02-24T11:04:43.760Z,12.40
2023-02-24T11:07:53.895Z,12.40
2023-02-24T11:11:07.159Z,12.50
2023-02-24T11:14:35.988Z,12.50
2023-02-24T11:17:46.749Z,12.60
2023-02-24T11:20:53.662Z,12.60
2023-02-24T11:24:02.816Z,12.50
2023-02-24T11:27:10.938Z,12.60
2023-02-24T11:30:20.934Z,12.60
2023-02-24T11:33:35.261Z,12.50
2023-02-24T11:36:45.093Z,12.60
2023-02-24T11:39:57.196Z,12.70
2023-02-24T11:43:07.403Z,12.70
2023-02-24T11:46:15.858Z,12.70
2023-02-24T11:49:30.383Z,12.80
2023-02-24T11:52:37.091Z,12.70
2023-02-24T11:55:43.714Z,12.80
2023-02-24T11:58:53.937Z,12.70
2023-02-24T12:02:05.628Z,12.60
2023-02-24T12:05:14.683Z,12.60
2023-02-24T12:08:29.218Z,12.60
2023-02-24T12:11:40.185Z,12.70
2023-02-24T12:14:51.306Z,12.60
2023-02-24T12:18:01.886Z,12.60
2023-02-24T12:21:08.427Z,12.70
2023-02-24T12:24:13.815Z,12.70
2023-02-24T12:27:26.437Z,12.70
2023-02-24T12:30:49.672Z,12.60
2023-02-24T12:34:02.877Z,12.60
2023-02-24T12:37:28.611Z,12.60
2023-02-24T12:40:42.100Z,12.60
2023-02-24T12:43:52.070Z,12.60
2023-02-24T12:47:05.550Z,12.70
2023-02-24T12:50:18.103Z,12.60
2023-02-24T12:53:24.511Z,12.50
2023-02-24T12:56:35.241Z,12.50
2023-02-24T12:59:40.578Z,12.50
2023-02-24T13:02:55.033Z,12.40
2023-02-24T13:06:07.560Z,12.30
2023-02-24T13:09:18.826Z,12.40
2023-02-24T13:12:27.992Z,12.40
2023-02-24T13:15:32.156Z,12.40
2023-02-24T13:18:39.473Z,12.30
2023-02-24T13:21:42.441Z,12.30
2023-02-24T13:24:57.928Z,12.40
2023-02-24T13:28:04.003Z,12.40
2023-02-24T13:31:09.710Z,12.40
2023-02-24T13:34:31.719Z,12.40
2023-02-24T13:37:37.354Z,12.40
2023-02-24T13:40:40.247Z,12.40
2023-02-24T13:43:54.825Z,12.30
2023-02-24T13:47:25.464Z,12.40
2023-02-24T13:50:35.985Z,12.20
2023-02-24T13:53:58.866Z,12.30
2023-02-24T13:57:17.592Z,12.30
2023-02-24T14:00:29.595Z,12.30
2023-02-24T14:03:33.812Z,12.20
2023-02-24T14:06:38.915Z,12.20
2023-02-24T14:09:48.590Z,12.20
2023-02-24T14:12:57.353Z,12.20
2023-02-24T14:16:02.165Z,12.30
2023-02-24T14:19:07.558Z,12.20
2023-02-24T14:22:20.528Z,12.20
2023-02-24T14:25:24.430Z,12.20
2023-02-24T14:28:30.940Z,12.20
2023-02-24T14:31:34.115Z,12.10
2023-02-24T14:34:37.199Z,12.10
2023-02-24T14:37:43.320Z,12.10
2023-02-24T14:40:49.578Z,12.10
2023-02-24T14:43:53.261Z,12.00
2023-02-24T14:46:58.123Z,12.00
2023-02-24T14:50:02.995Z,12.00
2023-02-24T14:53:11.271Z,12.00
2023-02-24T14:56:14.808Z,11.90
2023-02-24T14:59:20.243Z,11.90
2023-02-24T15:02:28.743Z,12.00
2023-02-24T15:05:31.894Z,12.00
2023-02-24T15:08:39.631Z,12.10
2023-02-24T15:11:42.937Z,12.10
2023-02-24T15:14:51.211Z,12.20
2023-02-24T15:17:57.211Z,12.20
2023-02-24T15:21:04.453Z,12.20
2023-02-24T15:24:19.772Z,12.20
2023-02-24T15:27:26.673Z,12.20
2023-02-24T15:30:33.067Z,12.10
2023-02-24T15:33:39.323Z,12.10
2023-02-24T15:36:42.160Z,12.10
2023-02-24T15:39:46.469Z,12.20
2023-02-24T15:42:53.738Z,12.10
2023-02-24T15:45:56.732Z,12.00
2023-02-24T15:49:03.106Z,12.00
2023-02-24T15:52:10.909Z,12.00
2023-02-24T15:55:18.477Z,12.00
2023-02-24T15:58:23.657Z,12.00
2023-02-24T16:01:27.226Z,11.90
2023-02-24T16:04:30.144Z,11.80
2023-02-24T16:07:37.824Z,11.80
2023-02-24T16:10:42.263Z,11.80
2023-02-24T16:13:51.627Z,11.80
2023-02-24T16:16:54.652Z,11.70
2023-02-24T16:19:57.807Z,11.50
2023-02-24T16:23:02.408Z,11.60
2023-02-24T16:26:06.840Z,11.60
2023-02-24T16:29:15.155Z,11.70
2023-02-24T16:32:18.175Z,11.60
2023-02-24T16:35:21.240Z,11.60
2023-02-24T16:38:26.535Z,11.60
2023-02-24T16:41:31.293Z,11.40
2023-02-24T16:44:34.182Z,11.30
2023-02-24T16:47:37.194Z,11.10
2023-02-24T16:50:42.310Z,11.10
2023-02-24T16:53:45.163Z,11.00
2023-02-24T16:56:49.611Z,11.00
2023-02-24T16:59:52.512Z,10.90
2023-02-24T17:02:55.916Z,10.60
2023-02-24T17:05:58.852Z,10.60
2023-02-24T17:09:02.023Z,10.60
2023-02-24T17:12:06.700Z,10.60
2023-02-24T17:15:13.461Z,10.60
2023-02-24T17:18:16.314Z,10.50
2023-02-24T17:21:19.507Z,10.40
2023-02-24T17:24:22.530Z,10.40
2023-02-24T17:27:26.808Z,10.40
2023-02-24T17:30:31.469Z,10.30
2023-02-24T17:33:34.508Z,10.20
2023-02-24T17:36:37.394Z,10.10
2023-02-24T17:39:40.293Z,10.00
2023-02-24T17:42:44.588Z,10.10
2023-02-24T17:45:48.485Z,10.10
2023-02-24T17:48:52.642Z,10.20
2023-02-24T17:51:55.662Z,10.10
2023-02-24T17:54:58.890Z,10.00
2023-02-24T17:58:03.227Z,10.00
2023-02-24T18:01:07.625Z,10.10
2023-02-24T18:04:13.051Z,9.90
2023-02-24T18:07:16.157Z,9.90
2023-02-24T18:10:19.412Z,10.00
2023-02-24T18:13:23.870Z,10.00
2023-02-24T18:16:26.846Z,10.00
2023-02-24T18:19:30.404Z,10.00
2023-02-24T18:22:33.367Z,10.00
2023-02-24T18:25:36.276Z,10.10
2023-02-24T18:28:40.816Z,10.10
2023-02-24T18:31:43.882Z,10.10
2023-02-24T18:34:46.840Z,10.10
2023-02-24T18:37:53.300Z,10.20
2023-02-24T18:41:00.653Z,10.10
2023-02-24T18:44:04.971Z,10.00
2023-02-24T18:47:09.572Z,10.00
2023-02-24T18:50:13.608Z,10.00
2023-02-24T18:53:16.456Z,9.90
2023-02-24T18:56:21.905Z,9.90
2023-02-24T18:59:26.349Z,9.90
2023-02-24T19:02:30.037Z,10.00
2023-02-24T19:05:38.564Z,10.00
2023-02-24T19:08:43.416Z,10.00
2023-02-24T19:11:46.270Z,10.00
2023-02-24T19:14:53.316Z,10.10
2023-02-24T19:17:56.189Z,10.10
2023-02-24T19:20:59.181Z,10.00
2023-02-24T19:24:03.600Z,10.20
2023-02-24T19:27:06.609Z,10.30
2023-02-24T19:30:12.317Z,10.30
2023-02-24T19:33:15.357Z,10.40
2023-02-24T19:36:18.421Z,10.50
2023-02-24T19:39:21.277Z,10.30
2023-02-24T19:42:24.125Z,10.40
2023-02-24T19:45:28.320Z,10.40
2023-02-24T19:48:31.175Z,10.50
2023-02-24T19:51:34.071Z,10.50
2023-02-24T19:54:36.919Z,10.60
2023-02-24T19:57:39.812Z,10.60
2023-02-24T20:00:44.252Z,10.60
2023-02-24T20:03:47.158Z,10.50
2023-02-24T20:06:50.104Z,10.50
2023-02-24T20:09:54.686Z,10.60
2023-02-24T20:12:58.029Z,10.60
2023-02-24T20:16:10.044Z,10.70
2023-02-24T20:19:15.130Z,10.70
2023-02-24T20:22:18.008Z,10.80
2023-02-24T20:25:20.867Z,10.70
2023-02-24T20:28:24.432Z,10.60
2023-02-24T20:31:28.696Z,10.70
2023-02-24T20:34:31.641Z,10.90
2023-02-24T20:37:34.512Z,10.70
2023-02-24T20:40:38.060Z,10.60
2023-02-24T20:43:40.958Z,10.50
2023-02-24T20:46:45.156Z,10.50
2023-02-24T20:49:47.999Z,10.60
2023-02-24T20:52:50.871Z,10.50
2023-02-24T20:56:01.155Z,10.30
2023-02-24T20:59:06.089Z,10.30
2023-02-24T21:02:12.668Z,10.30
2023-02-24T21:05:20.360Z,10.00
2023-02-24T21:08:23.213Z,10.00
2023-02-24T21:11:26.790Z,9.90
2023-02-24T21:14:29.646Z,9.70
2023-02-24T21:17:34.714Z,9.50
2023-02-24T21:20:37.566Z,9.30
2023-02-24T21:23:41.862Z,9.20
2023-02-24T21:26:44.815Z,9.10
2023-02-24T21:29:47.656Z,9.20
2023-02-24T21:32:51.850Z,8.90
2023-02-24T21:35:58.428Z,9.00
2023-02-24T21:39:02.065Z,9.00
2023-02-24T21:42:07.378Z,9.00
2023-02-24T21:45:11.888Z,9.10
2023-02-24T21:48:16.097Z,9.20
2023-02-24T21:51:18.941Z,9.30
2023-02-24T21:54:22.023Z,9.20
2023-02-24T21:57:24.959Z,9.00
2023-02-24T22:00:28.661Z,9.20
2023-02-24T22:03:32.901Z,8.90
2023-02-24T22:06:37.801Z,8.90
2023-02-24T22:09:40.683Z,8.90
2023-02-24T22:12:44.255Z,8.90
2023-02-24T22:15:47.123Z,8.70
2023-02-24T22:18:53.417Z,8.60
2023-02-24T22:22:00.358Z,8.40
2023-02-24T22:25:03.321Z,8.10
2023-02-24T22:28:06.375Z,8.10
2023-02-24T22:31:11.635Z,8.00
2023-02-24T22:34:15.896Z,8.10
2023-02-24T22:37:18.805Z,8.10
2023-02-24T22:40:21.701Z,8.10
2023-02-24T22:43:24.857Z,8.00
2023-02-24T22:46:29.748Z,7.90
2023-02-24T22:49:33.976Z,7.80
2023-02-24T22:52:36.826Z,7.70
2023-02-24T22:55:46.836Z,7.60
2023-02-24T22:58:49.944Z,7.50
2023-02-24T23:01:53.795Z,7.40
2023-02-24T23:04:58.763Z,7.60
2023-02-24T23:08:03.370Z,7.70
2023-02-24T23:11:08.233Z,7.70
2023-02-24T23:14:14.333Z,7.60
2023-02-24T23:17:17.209Z,7.60
2023-02-24T23:20:21.624Z,7.70
2023-02-24T23:23:24.466Z,7.60
2023-02-24T23:26:29.932Z,7.80
2023-02-24T23:29:32.791Z,7.70
2023-02-24T23:32:35.947Z,7.50
2023-02-24T23:35:40.767Z,7.40
2023-02-24T23:38:43.685Z,7.50
2023-02-24T23:41:46.682Z,7.70
2023-02-24T23:44:50.292Z,7.70
2023-02-24T23:47:53.464Z,7.70
2023-02-24T23:50:57.665Z,7.70
2023-02-24T23:54:00.572Z,7.80
2023-02-24T23:57:03.446Z,7.60
